Time;durP1;ratioP1;P1;durP2;ratioP2;P2;SDS_P1;SDS_P2;PMS_P1;PMS_P2;Temp;Humidity;BMP_temperature;BMP_pressure;BME280_temperature;BME280_humidity;BME280_pressure;Samples;Min_cycle;Max_cycle;Signal;HPM_P1;HPM_P2
2022/03/21 00:00:57;;;;;;;39.15;15.05;;;;;;;;;;5050385;28;20783;-71
2022/03/21 00:03:24;;;;;;;40.00;16.75;;;;;;;;;;5052126;28;20044;-72
2022/03/21 00:05:49;;;;;;;33.60;15.98;;;;;;;;;;5049163;28;20381;-71
2022/03/21 00:08:17;;;;;;;35.22;15.07;;;;;;;;;;5050300;28;20021;-70
2022/03/21 00:10:42;;;;;;;39.92;16.15;;;;;;;;;;5049671;28;20021;-70
2022/03/21 00:13:08;;;;;;;33.33;15.05;;;;;;;;;;5050649;28;20100;-70
2022/03/21 00:15:34;;;;;;;28.83;14.63;;;;;;;;;;5050404;28;20239;-71
2022/03/21 00:18:01;;;;;;;32.80;15.15;;;;;;;;;;5050011;28;20096;-72
2022/03/21 00:20:27;;;;;;;34.20;14.48;;;;;;;;;;5050118;28;20052;-71
2022/03/21 00:22:53;;;;;;;31.52;15.52;;;;;;;;;;5052060;28;20013;-71
2022/03/21 00:25:19;;;;;;;31.48;14.77;;;;;;;;;;5049554;28;20400;-71
2022/03/21 00:27:44;;;;;;;36.45;13.75;;;;;;;;;;5048775;28;20139;-71
2022/03/21 00:30:09;;;;;;;30.05;14.18;;;;;;;;;;5050045;28;20115;-71
2022/03/21 00:32:35;;;;;;;32.13;14.52;;;;;;;;;;5049546;28;20086;-71
2022/03/21 00:35:01;;;;;;;32.38;14.93;;;;;;;;;;5048597;28;20120;-71
2022/03/21 00:37:27;;;;;;;36.88;16.25;;;;;;;;;;5050845;28;20092;-70
2022/03/21 00:39:52;;;;;;;35.20;15.60;;;;;;;;;;5051459;28;20497;-72
2022/03/21 00:42:17;;;;;;;29.40;14.68;;;;;;;;;;5050658;28;20033;-72
2022/03/21 00:44:43;;;;;;;32.15;13.55;;;;;;;;;;5050578;28;20112;-72
2022/03/21 00:47:08;;;;;;;29.70;13.73;;;;;;;;;;5049698;28;20033;-72
2022/03/21 00:49:33;;;;;;;32.38;14.10;;;;;;;;;;5049978;28;20099;-72
2022/03/21 00:51:58;;;;;;;36.30;15.27;;;;;;;;;;5049202;28;20131;-72
2022/03/21 00:54:24;;;;;;;25.57;13.00;;;;;;;;;;5051340;28;20059;-72
2022/03/21 00:56:49;;;;;;;30.75;13.10;;;;;;;;;;5050513;28;20336;-72
2022/03/21 00:59:14;;;;;;;31.90;13.80;;;;;;;;;;5049601;28;20029;-72
2022/03/21 01:01:39;;;;;;;30.67;14.98;;;;;;;;;;5048582;28;20247;-72
2022/03/21 01:04:04;;;;;;;29.55;14.38;;;;;;;;;;5049600;28;20381;-72
2022/03/21 01:06:30;;;;;;;32.70;14.32;;;;;;;;;;5050121;28;20028;-72
2022/03/21 01:08:55;;;;;;;32.92;15.38;;;;;;;;;;5049359;28;20035;-72
2022/03/21 01:11:22;;;;;;;25.85;13.20;;;;;;;;;;5050422;28;20021;-72
2022/03/21 01:13:47;;;;;;;25.75;13.88;;;;;;;;;;5048646;28;20029;-71
2022/03/21 01:16:13;;;;;;;29.92;15.05;;;;;;;;;;5050127;28;20420;-71
2022/03/21 01:18:38;;;;;;;39.08;15.25;;;;;;;;;;5049269;28;20469;-71
2022/03/21 01:21:04;;;;;;;33.88;14.38;;;;;;;;;;5049953;28;20021;-72
2022/03/21 01:23:29;;;;;;;35.28;14.68;;;;;;;;;;5051774;28;20074;-72
2022/03/21 01:25:54;;;;;;;38.63;15.20;;;;;;;;;;5054162;28;20416;-72
2022/03/21 01:28:19;;;;;;;30.60;14.25;;;;;;;;;;5052422;28;20283;-71
2022/03/21 01:30:44;;;;;;;30.45;14.93;;;;;;;;;;5054224;28;20021;-70
2022/03/21 01:33:10;;;;;;;31.47;14.23;;;;;;;;;;5053600;28;20040;-71
2022/03/21 01:35:35;;;;;;;28.30;13.73;;;;;;;;;;5053585;28;20786;-71
2022/03/21 01:38:00;;;;;;;29.08;14.43;;;;;;;;;;5050900;28;20123;-71
2022/03/21 01:40:25;;;;;;;38.78;16.25;;;;;;;;;;5050347;28;20013;-71
2022/03/21 01:42:51;;;;;;;31.48;14.70;;;;;;;;;;5044616;28;20024;-71
2022/03/21 01:45:17;;;;;;;24.85;13.55;;;;;;;;;;5052983;28;20389;-71
2022/03/21 01:47:42;;;;;;;29.17;15.85;;;;;;;;;;5052807;28;20056;-71
2022/03/21 01:50:08;;;;;;;30.95;15.45;;;;;;;;;;5052656;28;20473;-71
2022/03/21 01:52:36;;;;;;;29.75;15.55;;;;;;;;;;5052829;28;20492;-71
2022/03/21 01:57:46;;;;;;;30.55;13.75;;;;;;;;;;5052232;28;20036;-71
2022/03/21 02:00:11;;;;;;;33.92;14.85;;;;;;;;;;5052763;28;20021;-71
2022/03/21 02:02:37;;;;;;;28.05;14.50;;;;;;;;;;5052386;28;20441;-71
2022/03/21 02:05:02;;;;;;;28.13;13.95;;;;;;;;;;5052833;28;20053;-71
2022/03/21 02:07:27;;;;;;;30.60;14.38;;;;;;;;;;5052391;28;20108;-71
2022/03/21 02:09:53;;;;;;;30.25;14.57;;;;;;;;;;5052193;28;20044;-71
2022/03/21 02:12:18;;;;;;;34.58;16.30;;;;;;;;;;5052608;28;20020;-71
2022/03/21 02:14:43;;;;;;;28.95;14.52;;;;;;;;;;5052224;28;20543;-71
2022/03/21 02:17:10;;;;;;;35.47;14.35;;;;;;;;;;5052561;28;20036;-71
2022/03/21 02:19:37;;;;;;;35.97;15.82;;;;;;;;;;5052140;28;20040;-71
2022/03/21 02:22:31;;;;;;;30.02;14.40;;;;;;;;;;5052531;28;20059;-71
2022/03/21 02:25:03;;;;;;;33.45;15.18;;;;;;;;;;5030072;28;20037;-71
2022/03/21 02:27:30;;;;;;;36.00;15.25;;;;;;;;;;5046530;28;20075;-71
2022/03/21 02:29:55;;;;;;;35.13;14.32;;;;;;;;;;5052193;28;20021;-71
2022/03/21 02:32:21;;;;;;;32.25;13.93;;;;;;;;;;5052382;28;20123;-69
2022/03/21 02:34:48;;;;;;;41.28;15.65;;;;;;;;;;5051617;28;20029;-69
2022/03/21 02:37:15;;;;;;;36.53;15.95;;;;;;;;;;5052151;28;20109;-71
2022/03/21 02:39:42;;;;;;;31.83;14.90;;;;;;;;;;5051666;28;20028;-69
2022/03/21 02:42:08;;;;;;;34.60;14.63;;;;;;;;;;5051941;28;20052;-70
2022/03/21 02:44:34;;;;;;;29.67;13.50;;;;;;;;;;5050106;28;20056;-69
2022/03/21 02:46:59;;;;;;;40.15;16.40;;;;;;;;;;5051663;28;20025;-70
2022/03/21 02:49:24;;;;;;;33.95;15.27;;;;;;;;;;5050978;28;20079;-69
2022/03/21 02:51:51;;;;;;;34.10;14.77;;;;;;;;;;5052398;28;20043;-71
2022/03/21 02:54:19;;;;;;;28.83;15.15;;;;;;;;;;5050785;28;20108;-69
2022/03/21 02:56:44;;;;;;;35.13;14.00;;;;;;;;;;5051897;28;20083;-70
2022/03/21 02:59:10;;;;;;;30.05;15.07;;;;;;;;;;5049851;28;20016;-71
2022/03/21 03:01:36;;;;;;;34.97;15.13;;;;;;;;;;5051401;28;20027;-70
2022/03/21 03:04:01;;;;;;;31.45;14.90;;;;;;;;;;5051474;28;20055;-69
2022/03/21 03:06:27;;;;;;;34.30;14.27;;;;;;;;;;5050807;28;20428;-70
2022/03/21 03:08:54;;;;;;;29.85;14.75;;;;;;;;;;5051393;28;20061;-68
2022/03/21 03:11:19;;;;;;;31.15;14.82;;;;;;;;;;5051302;28;20504;-67
2022/03/21 03:13:44;;;;;;;39.30;14.87;;;;;;;;;;5051199;28;20032;-67
2022/03/21 03:16:10;;;;;;;38.97;15.20;;;;;;;;;;5051154;28;20370;-71
2022/03/21 03:18:35;;;;;;;31.48;14.85;;;;;;;;;;5049826;28;20458;-70
2022/03/21 03:21:00;;;;;;;32.08;14.40;;;;;;;;;;5051041;28;20029;-71
2022/03/21 03:23:26;;;;;;;30.40;14.07;;;;;;;;;;5051367;28;20028;-69
2022/03/21 03:25:59;;;;;;;32.83;15.20;;;;;;;;;;5049418;28;20025;-69
2022/03/21 03:28:24;;;;;;;28.73;14.30;;;;;;;;;;5048324;28;20021;-69
2022/03/21 03:30:50;;;;;;;31.08;15.73;;;;;;;;;;5050674;28;20024;-70
2022/03/21 03:33:15;;;;;;;28.20;13.98;;;;;;;;;;5051693;28;20021;-71
2022/03/21 03:35:40;;;;;;;35.35;15.82;;;;;;;;;;5051074;28;20049;-71
2022/03/21 03:38:05;;;;;;;32.72;15.48;;;;;;;;;;5050367;28;20040;-71
2022/03/21 03:40:31;;;;;;;36.40;16.17;;;;;;;;;;5051005;28;20100;-71
2022/03/21 03:42:56;;;;;;;36.45;15.15;;;;;;;;;;5042962;28;20060;-71
2022/03/21 03:45:21;;;;;;;33.28;14.88;;;;;;;;;;5044132;28;20023;-71
2022/03/21 03:47:46;;;;;;;27.45;14.82;;;;;;;;;;5048432;28;20037;-71
2022/03/21 03:50:12;;;;;;;35.17;15.35;;;;;;;;;;5051198;28;20068;-71
2022/03/21 03:52:38;;;;;;;40.30;17.88;;;;;;;;;;5068178;28;20094;-71
2022/03/21 03:55:03;;;;;;;34.17;15.85;;;;;;;;;;5060532;28;20473;-71
2022/03/21 03:57:28;;;;;;;33.20;15.50;;;;;;;;;;5047218;28;20070;-71
2022/03/21 03:59:54;;;;;;;34.57;14.57;;;;;;;;;;5048877;28;20017;-70
2022/03/21 04:02:19;;;;;;;28.83;15.05;;;;;;;;;;5042723;28;20748;-70
2022/03/21 04:04:44;;;;;;;35.60;16.40;;;;;;;;;;5050010;28;20028;-70
2022/03/21 04:07:09;;;;;;;34.67;15.05;;;;;;;;;;5050539;28;20432;-70
2022/03/21 04:09:34;;;;;;;33.33;16.50;;;;;;;;;;5049983;28;20037;-70
2022/03/21 04:12:00;;;;;;;32.90;16.73;;;;;;;;;;5048619;28;20033;-70
2022/03/21 04:14:25;;;;;;;38.13;16.67;;;;;;;;;;5052817;28;20017;-70
2022/03/21 04:16:50;;;;;;;34.38;16.25;;;;;;;;;;5051503;28;20036;-70
2022/03/21 04:19:16;;;;;;;34.95;15.88;;;;;;;;;;5040586;28;20089;-70
2022/03/21 04:21:41;;;;;;;40.67;16.10;;;;;;;;;;5057216;28;20020;-70
2022/03/21 04:24:07;;;;;;;38.15;16.15;;;;;;;;;;5050032;28;20025;-70
2022/03/21 04:26:32;;;;;;;38.17;15.50;;;;;;;;;;5049936;28;20489;-70
2022/03/21 04:28:57;;;;;;;34.58;15.95;;;;;;;;;;5049839;28;20025;-70
2022/03/21 04:31:23;;;;;;;30.80;15.98;;;;;;;;;;5050041;28;20413;-70
2022/03/21 04:33:48;;;;;;;30.90;14.88;;;;;;;;;;5047079;28;20025;-69
2022/03/21 04:36:14;;;;;;;36.93;16.00;;;;;;;;;;5038092;28;20027;-69
2022/03/21 04:38:39;;;;;;;31.58;15.95;;;;;;;;;;5044147;28;20284;-70
2022/03/21 04:41:04;;;;;;;26.90;14.63;;;;;;;;;;5044677;28;20103;-70
2022/03/21 04:43:30;;;;;;;37.83;16.70;;;;;;;;;;5049511;28;20032;-70
2022/03/21 04:45:55;;;;;;;36.95;16.40;;;;;;;;;;5049322;28;20031;-70
2022/03/21 04:48:21;;;;;;;35.30;15.52;;;;;;;;;;5049876;28;20100;-70
2022/03/21 04:50:46;;;;;;;35.90;15.43;;;;;;;;;;5049779;28;20024;-70
2022/03/21 04:53:11;;;;;;;38.13;16.35;;;;;;;;;;5049368;28;20029;-69
2022/03/21 04:55:37;;;;;;;33.88;16.20;;;;;;;;;;5050164;28;20075;-69
2022/03/21 04:58:03;;;;;;;34.50;16.40;;;;;;;;;;5050311;28;20021;-70
2022/03/21 05:00:28;;;;;;;33.47;16.42;;;;;;;;;;5041940;28;20075;-71
2022/03/21 05:02:53;;;;;;;31.25;15.90;;;;;;;;;;5046658;28;20029;-69
2022/03/21 05:05:18;;;;;;;39.63;17.30;;;;;;;;;;5052811;28;20028;-71
2022/03/21 05:07:52;;;;;;;31.73;15.70;;;;;;;;;;5052624;28;20635;-68
2022/03/21 05:10:17;;;;;;;42.97;16.30;;;;;;;;;;5052466;28;20047;-68
2022/03/21 05:12:43;;;;;;;30.30;16.17;;;;;;;;;;5046988;28;20025;-69
2022/03/21 05:15:08;;;;;;;38.30;16.17;;;;;;;;;;5050985;28;20362;-68
2022/03/21 05:17:34;;;;;;;30.00;15.52;;;;;;;;;;5053790;28;20287;-68
2022/03/21 05:20:00;;;;;;;38.90;17.02;;;;;;;;;;5053473;28;20029;-69
2022/03/21 05:22:25;;;;;;;39.60;18.30;;;;;;;;;;5053425;28;20385;-70
2022/03/21 05:35:54;;;;;;;36.33;16.98;;;;;;;;;;5053611;28;20439;-68
2022/03/21 05:38:20;;;;;;;44.42;18.33;;;;;;;;;;5053349;28;20020;-69
2022/03/21 05:40:45;;;;;;;36.33;17.00;;;;;;;;;;5053497;28;20020;-69
2022/03/21 05:43:10;;;;;;;34.17;17.43;;;;;;;;;;5053300;28;20458;-68
2022/03/21 05:45:35;;;;;;;37.53;16.63;;;;;;;;;;5054155;28;20263;-68
2022/03/21 05:50:45;;;;;;;41.47;17.60;;;;;;;;;;5054893;28;20679;-71
2022/03/21 05:53:10;;;;;;;35.92;16.58;;;;;;;;;;5052533;28;20060;-69
2022/03/21 05:55:36;;;;;;;34.60;16.95;;;;;;;;;;5053853;28;20024;-68
2022/03/21 05:58:01;;;;;;;34.70;16.45;;;;;;;;;;5052768;28;20036;-68
2022/03/21 06:00:26;;;;;;;39.55;16.85;;;;;;;;;;5043903;28;20032;-69
2022/03/21 06:02:52;;;;;;;34.75;16.42;;;;;;;;;;5043944;28;20033;-70
2022/03/21 06:05:18;;;;;;;34.67;17.02;;;;;;;;;;5051509;28;20492;-70
2022/03/21 06:07:43;;;;;;;30.88;16.80;;;;;;;;;;5051363;28;20055;-70
2022/03/21 06:10:08;;;;;;;35.90;16.20;;;;;;;;;;5049741;28;20464;-70
2022/03/21 06:12:34;;;;;;;39.97;17.50;;;;;;;;;;5051097;28;20062;-70
2022/03/21 06:14:59;;;;;;;36.03;17.47;;;;;;;;;;5050045;28;20389;-70
2022/03/21 06:17:24;;;;;;;44.17;18.85;;;;;;;;;;5055537;28;20310;-70
2022/03/21 06:19:49;;;;;;;37.55;17.58;;;;;;;;;;5053185;28;20485;-70
2022/03/21 06:22:14;;;;;;;33.87;17.63;;;;;;;;;;5037072;28;20389;-70
2022/03/21 06:24:40;;;;;;;42.97;17.95;;;;;;;;;;5047046;28;20267;-70
2022/03/21 06:27:05;;;;;;;37.90;18.42;;;;;;;;;;5050118;28;20064;-70
2022/03/21 06:29:30;;;;;;;47.03;19.30;;;;;;;;;;5053808;28;20562;-70
2022/03/21 06:31:57;;;;;;;43.42;18.63;;;;;;;;;;5051772;28;20541;-70
2022/03/21 06:34:22;;;;;;;55.47;21.23;;;;;;;;;;5050932;28;20094;-70
2022/03/21 06:36:47;;;;;;;47.05;21.50;;;;;;;;;;5043579;28;20485;-70
2022/03/21 06:39:12;;;;;;;64.53;26.10;;;;;;;;;;5049491;28;20460;-70
2022/03/21 06:41:38;;;;;;;55.42;23.67;;;;;;;;;;5050222;28;20263;-70
2022/03/21 06:44:03;;;;;;;55.20;21.77;;;;;;;;;;5049299;28;20413;-70
2022/03/21 06:46:29;;;;;;;50.08;20.27;;;;;;;;;;5045239;28;20059;-69
2022/03/21 06:48:54;;;;;;;42.85;17.63;;;;;;;;;;5043190;28;20036;-69
2022/03/21 06:51:19;;;;;;;41.07;19.33;;;;;;;;;;5050289;28;20389;-70
2022/03/21 06:53:44;;;;;;;41.07;19.03;;;;;;;;;;5051942;28;20283;-70
2022/03/21 06:56:09;;;;;;;42.80;18.83;;;;;;;;;;5051340;28;20311;-70
2022/03/21 06:58:34;;;;;;;40.60;18.73;;;;;;;;;;5051186;28;20036;-70
2022/03/21 07:01:00;;;;;;;37.05;16.27;;;;;;;;;;5051510;28;20298;-70
2022/03/21 07:03:26;;;;;;;29.30;14.95;;;;;;;;;;5051231;28;20017;-70
2022/03/21 07:05:52;;;;;;;27.92;15.15;;;;;;;;;;5051827;28;20437;-70
2022/03/21 07:08:17;;;;;;;30.77;15.80;;;;;;;;;;5051265;28;20040;-70
2022/03/21 07:10:44;;;;;;;36.00;15.52;;;;;;;;;;5051326;28;20025;-70
2022/03/21 07:13:10;;;;;;;27.58;13.45;;;;;;;;;;5049390;28;20025;-70
2022/03/21 07:15:36;;;;;;;32.33;14.63;;;;;;;;;;5047286;28;20025;-72
2022/03/21 07:18:01;;;;;;;28.83;14.27;;;;;;;;;;5051048;28;20255;-69
2022/03/21 07:20:27;;;;;;;27.33;12.52;;;;;;;;;;5049853;28;20075;-70
2022/03/21 07:22:53;;;;;;;23.98;13.48;;;;;;;;;;5046533;28;20458;-70
2022/03/21 07:25:18;;;;;;;26.52;10.57;;;;;;;;;;5050425;28;20025;-70
2022/03/21 07:27:45;;;;;;;26.23;12.82;;;;;;;;;;5051160;28;20060;-70
2022/03/21 07:30:12;;;;;;;28.67;14.95;;;;;;;;;;5050516;28;20496;-70
2022/03/21 07:32:37;;;;;;;28.95;13.43;;;;;;;;;;5049780;28;20032;-70
2022/03/21 07:35:03;;;;;;;25.40;10.30;;;;;;;;;;5045664;28;20032;-70
2022/03/21 07:37:28;;;;;;;22.92;12.27;;;;;;;;;;5047186;28;20797;-70
2022/03/21 07:39:53;;;;;;;22.20;13.07;;;;;;;;;;5045622;28;20024;-70
2022/03/21 07:42:19;;;;;;;26.40;14.57;;;;;;;;;;5040630;28;20333;-70
2022/03/21 07:47:28;;;;;;;25.42;12.18;;;;;;;;;;5048720;28;20036;-70
2022/03/21 07:49:55;;;;;;;24.17;12.25;;;;;;;;;;5047744;28;20021;-70
2022/03/21 07:52:21;;;;;;;17.15;8.80;;;;;;;;;;5046748;28;20024;-70
2022/03/21 07:54:47;;;;;;;21.83;11.73;;;;;;;;;;5049178;28;20481;-70
2022/03/21 07:57:12;;;;;;;18.38;10.55;;;;;;;;;;5049064;28;20036;-70
2022/03/21 07:59:37;;;;;;;23.13;11.52;;;;;;;;;;5044246;28;20009;-70
2022/03/21 08:02:05;;;;;;;27.60;14.02;;;;;;;;;;5044944;28;20135;-70
2022/03/21 08:04:31;;;;;;;23.30;12.00;;;;;;;;;;5045367;28;20096;-70
2022/03/21 08:06:58;;;;;;;26.02;13.70;;;;;;;;;;5039799;28;20112;-70
2022/03/21 08:09:24;;;;;;;24.95;12.38;;;;;;;;;;5045121;28;20021;-70
2022/03/21 08:11:49;;;;;;;16.90;8.13;;;;;;;;;;5043547;28;20111;-70
2022/03/21 08:14:15;;;;;;;16.80;8.27;;;;;;;;;;5045794;28;20474;-70
2022/03/21 08:16:40;;;;;;;18.20;10.73;;;;;;;;;;5047846;28;20295;-70
2022/03/21 08:19:06;;;;;;;26.17;12.40;;;;;;;;;;5044871;28;20266;-70
2022/03/21 08:21:32;;;;;;;24.63;13.23;;;;;;;;;;5041531;28;20100;-70
2022/03/21 08:23:57;;;;;;;24.30;10.73;;;;;;;;;;5037922;28;20104;-70
2022/03/21 08:26:22;;;;;;;19.23;10.23;;;;;;;;;;5047933;28;20017;-70
2022/03/21 08:28:47;;;;;;;17.77;7.38;;;;;;;;;;5044442;28;20355;-71
2022/03/21 08:31:13;;;;;;;18.30;8.20;;;;;;;;;;5044027;28;20037;-71
2022/03/21 08:33:38;;;;;;;17.60;10.90;;;;;;;;;;5045649;28;20282;-71
2022/03/21 08:36:04;;;;;;;17.00;8.20;;;;;;;;;;5047905;28;20155;-71
2022/03/21 08:38:29;;;;;;;17.92;8.77;;;;;;;;;;5046472;28;20021;-70
2022/03/21 08:40:56;;;;;;;23.30;12.10;;;;;;;;;;5043511;28;20012;-71
2022/03/21 08:43:21;;;;;;;18.17;10.55;;;;;;;;;;5046242;28;20104;-70
2022/03/21 08:45:48;;;;;;;17.08;8.85;;;;;;;;;;5048412;28;20097;-70
2022/03/21 08:48:13;;;;;;;22.15;12.15;;;;;;;;;;5046850;28;20032;-70
2022/03/21 08:50:38;;;;;;;28.20;12.50;;;;;;;;;;5047398;28;20024;-70
2022/03/21 08:53:03;;;;;;;18.40;10.40;;;;;;;;;;5042867;28;21091;-71
2022/03/21 08:55:28;;;;;;;21.30;11.07;;;;;;;;;;5045079;28;20267;-71
2022/03/21 08:57:54;;;;;;;21.35;13.13;;;;;;;;;;5042816;28;20294;-71
2022/03/21 09:00:19;;;;;;;33.40;13.48;;;;;;;;;;5045990;28;20060;-71
2022/03/21 09:02:46;;;;;;;24.05;13.45;;;;;;;;;;5042317;28;20047;-71
2022/03/21 09:05:12;;;;;;;26.55;13.63;;;;;;;;;;5046289;28;20013;-71
2022/03/21 09:07:37;;;;;;;23.75;12.75;;;;;;;;;;5044069;28;20040;-71
2022/03/21 09:10:03;;;;;;;13.80;5.90;;;;;;;;;;5043803;28;20032;-71
2022/03/21 09:12:29;;;;;;;17.50;10.57;;;;;;;;;;5048418;28;20036;-71
2022/03/21 09:14:55;;;;;;;19.73;9.93;;;;;;;;;;5043309;28;20087;-71
2022/03/21 09:17:20;;;;;;;17.35;8.63;;;;;;;;;;5042925;28;20017;-71
2022/03/21 09:19:45;;;;;;;14.85;7.72;;;;;;;;;;5047084;28;20068;-71
2022/03/21 09:22:11;;;;;;;23.25;11.10;;;;;;;;;;5045033;28;20018;-71
2022/03/21 09:24:36;;;;;;;24.55;11.95;;;;;;;;;;5044226;28;20016;-71
2022/03/21 09:27:01;;;;;;;22.17;12.90;;;;;;;;;;5045755;28;20017;-71
2022/03/21 09:29:27;;;;;;;16.17;6.47;;;;;;;;;;5047127;28;20025;-71
2022/03/21 09:31:52;;;;;;;23.97;12.57;;;;;;;;;;5046939;28;20477;-71
2022/03/21 09:34:18;;;;;;;29.88;14.77;;;;;;;;;;5045141;28;20323;-72
2022/03/21 09:36:43;;;;;;;20.33;9.35;;;;;;;;;;5041770;28;20111;-72
2022/03/21 09:39:08;;;;;;;19.73;8.77;;;;;;;;;;5041998;28;20044;-72
2022/03/21 09:41:34;;;;;;;25.38;12.80;;;;;;;;;;5047430;28;20075;-72
2022/03/21 09:44:01;;;;;;;29.25;13.48;;;;;;;;;;5045199;28;20021;-72
2022/03/21 09:46:26;;;;;;;27.17;13.80;;;;;;;;;;5047454;28;20496;-72
2022/03/21 09:48:52;;;;;;;24.42;10.52;;;;;;;;;;5047917;28;20028;-72
2022/03/21 09:51:22;;;;;;;26.25;12.50;;;;;;;;;;5049246;28;20128;-72
2022/03/21 09:53:48;;;;;;;22.17;11.70;;;;;;;;;;5053020;28;20032;-73
2022/03/21 09:56:14;;;;;;;19.77;12.60;;;;;;;;;;5051868;28;20033;-73
2022/03/21 09:58:39;;;;;;;23.45;12.25;;;;;;;;;;5052104;28;20040;-73
2022/03/21 10:01:05;;;;;;;18.70;12.05;;;;;;;;;;5051955;28;20017;-73
2022/03/21 10:03:30;;;;;;;22.67;10.15;;;;;;;;;;5048889;28;20041;-73
2022/03/21 10:05:56;;;;;;;23.25;11.65;;;;;;;;;;5045517;28;20071;-73
2022/03/21 10:08:21;;;;;;;24.13;12.50;;;;;;;;;;5050158;28;20017;-73
2022/03/21 10:10:58;;;;;;;23.05;13.32;;;;;;;;;;5050933;28;20025;-73
2022/03/21 10:13:33;;;;;;;21.88;11.02;;;;;;;;;;5047291;28;20017;-73
2022/03/21 10:16:06;;;;;;;12.93;7.45;;;;;;;;;;5044559;28;20017;-73
2022/03/21 10:18:31;;;;;;;27.88;10.75;;;;;;;;;;5049181;28;20021;-73
2022/03/21 10:21:08;;;;;;;21.13;11.88;;;;;;;;;;5047728;28;20024;-73
2022/03/21 10:23:34;;;;;;;14.68;7.22;;;;;;;;;;5050778;28;20100;-73
2022/03/21 10:26:00;;;;;;;21.48;11.60;;;;;;;;;;5042929;28;20024;-73
2022/03/21 10:28:32;;;;;;;13.87;6.53;;;;;;;;;;5045170;28;20017;-73
2022/03/21 10:30:57;;;;;;;20.85;9.02;;;;;;;;;;5045023;28;20687;-73
2022/03/21 10:33:23;;;;;;;16.47;7.07;;;;;;;;;;5050178;28;20460;-73
2022/03/21 10:35:48;;;;;;;27.00;10.15;;;;;;;;;;5050993;28;20291;-73
2022/03/21 10:38:27;;;;;;;23.83;12.45;;;;;;;;;;5051366;28;20135;-73
2022/03/21 10:40:53;;;;;;;9.85;4.78;;;;;;;;;;5050029;28;20378;-73
2022/03/21 10:43:19;;;;;;;18.05;9.60;;;;;;;;;;5051682;28;20017;-73
2022/03/21 10:45:46;;;;;;;20.90;9.25;;;;;;;;;;5049571;28;20056;-73
2022/03/21 10:48:15;;;;;;;19.40;9.95;;;;;;;;;;5044031;28;20460;-73
2022/03/21 10:50:42;;;;;;;18.25;7.15;;;;;;;;;;5046100;28;20039;-73
2022/03/21 10:53:07;;;;;;;25.52;9.40;;;;;;;;;;5040262;28;20384;-73
2022/03/21 10:55:32;;;;;;;14.77;7.13;;;;;;;;;;5043349;28;20032;-73
2022/03/21 10:57:58;;;;;;;22.83;10.47;;;;;;;;;;5045597;28;20021;-73
2022/03/21 11:00:24;;;;;;;21.17;11.05;;;;;;;;;;5045185;28;20278;-73
2022/03/21 11:03:09;;;;;;;20.17;10.18;;;;;;;;;;5043560;28;20015;-73
2022/03/21 11:05:38;;;;;;;20.92;11.63;;;;;;;;;;5044765;28;20392;-73
2022/03/21 11:08:04;;;;;;;14.25;7.50;;;;;;;;;;5037827;28;20385;-73
2022/03/21 11:10:29;;;;;;;21.23;10.07;;;;;;;;;;5048626;28;20025;-73
2022/03/21 11:12:56;;;;;;;18.73;10.27;;;;;;;;;;5045695;28;20078;-73
2022/03/21 11:15:21;;;;;;;24.20;9.18;;;;;;;;;;5048172;28;20032;-73
2022/03/21 11:17:47;;;;;;;18.65;10.02;;;;;;;;;;5044810;28;20378;-74
2022/03/21 11:20:12;;;;;;;18.33;8.65;;;;;;;;;;5048949;28;20052;-71
2022/03/21 11:22:39;;;;;;;22.20;9.38;;;;;;;;;;5048966;28;20048;-71
2022/03/21 11:25:05;;;;;;;12.88;5.13;;;;;;;;;;5046358;28;20021;-71
2022/03/21 11:27:40;;;;;;;22.08;10.82;;;;;;;;;;5048115;28;20415;-71
2022/03/21 11:30:15;;;;;;;21.90;10.82;;;;;;;;;;5045405;28;20017;-71
2022/03/21 11:32:43;;;;;;;20.88;9.25;;;;;;;;;;5041834;28;20112;-71
2022/03/21 11:35:13;;;;;;;21.67;9.63;;;;;;;;;;5045138;28;20033;-71
2022/03/21 11:37:38;;;;;;;;;;;;;;;;;;5046905;28;20017;-71
2022/03/21 11:40:22;;;;;;;22.27;7.97;;;;;;;;;;5046131;28;19924;-71
2022/03/21 11:42:47;;;;;;;17.88;8.90;;;;;;;;;;5045720;28;20755;-71
2022/03/21 11:45:23;;;;;;;16.05;9.43;;;;;;;;;;5048537;28;20021;-71
2022/03/21 11:47:48;;;;;;;19.77;10.73;;;;;;;;;;5046465;28;20020;-70
2022/03/21 11:50:28;;;;;;;15.40;8.93;;;;;;;;;;5045630;28;20036;-70
2022/03/21 11:53:07;;;;;;;18.15;9.07;;;;;;;;;;5041753;28;21576;-71
2022/03/21 11:55:41;;;;;;;18.25;9.35;;;;;;;;;;5046233;28;20029;-70
2022/03/21 11:58:32;;;;;;;15.38;8.00;;;;;;;;;;5047860;28;20031;-70
2022/03/21 12:01:28;;;;;;;15.20;7.15;;;;;;;;;;5036881;28;20029;-71
2022/03/21 12:03:53;;;;;;;14.05;5.50;;;;;;;;;;5043609;28;20056;-70
2022/03/21 12:06:23;;;;;;;21.15;9.88;;;;;;;;;;5046851;28;20098;-70
2022/03/21 12:08:56;;;;;;;14.93;7.25;;;;;;;;;;5045444;28;20328;-70
2022/03/21 12:11:37;;;;;;;17.58;7.30;;;;;;;;;;5042640;28;20485;-70
2022/03/21 12:14:21;;;;;;;17.65;6.22;;;;;;;;;;5045110;28;20027;-71
2022/03/21 12:17:01;;;;;;;6.57;3.40;;;;;;;;;;5046559;28;20469;-71
2022/03/21 12:19:26;;;;;;;;;;;;;;;;;;5043959;28;20025;-71
2022/03/21 12:22:10;;;;;;;15.30;7.80;;;;;;;;;;5047328;28;19908;-70
2022/03/21 12:24:48;;;;;;;19.23;7.25;;;;;;;;;;5043471;28;20029;-70
2022/03/21 12:27:29;;;;;;;14.60;6.30;;;;;;;;;;5045643;28;20032;-71
2022/03/21 12:30:14;;;;;;;19.70;7.68;;;;;;;;;;5047903;28;20056;-70
2022/03/21 12:32:51;;;;;;;22.73;7.88;;;;;;;;;;5048557;28;20029;-70
2022/03/21 12:35:32;;;;;;;5.60;3.05;;;;;;;;;;5037104;28;20036;-71
2022/03/21 12:38:00;;;;;;;10.32;5.72;;;;;;;;;;5046804;28;20110;-70
2022/03/21 12:40:25;;;;;;;15.45;7.50;;;;;;;;;;5044321;28;20075;-70
2022/03/21 12:42:50;;;;;;;9.68;5.82;;;;;;;;;;5040207;28;20025;-71
2022/03/21 12:45:16;;;;;;;13.07;7.28;;;;;;;;;;5048959;28;20017;-70
2022/03/21 12:47:41;;;;;;;9.02;4.75;;;;;;;;;;5048523;28;20040;-70
2022/03/21 12:50:07;;;;;;;10.40;6.37;;;;;;;;;;5039560;28;20022;-70
2022/03/21 12:52:32;;;;;;;7.32;4.47;;;;;;;;;;5046201;28;20325;-70
2022/03/21 12:54:58;;;;;;;7.93;3.97;;;;;;;;;;5046203;28;20025;-71
2022/03/21 12:57:23;;;;;;;6.00;3.10;;;;;;;;;;5046329;28;20508;-70
2022/03/21 12:59:48;;;;;;;14.38;6.50;;;;;;;;;;5048230;28;20040;-71
2022/03/21 13:02:23;;;;;;;12.00;4.63;;;;;;;;;;5041896;28;20025;-70
2022/03/21 13:10:34;;;;;;;13.23;4.63;;;;;;;;;;5042515;28;20028;-70
2022/03/21 13:13:04;;;;;;;16.13;6.25;;;;;;;;;;5042822;28;20025;-70
2022/03/21 13:15:30;;;;;;;8.40;5.03;;;;;;;;;;5044293;28;20345;-70
2022/03/21 13:18:01;;;;;;;15.77;5.47;;;;;;;;;;5038013;28;20028;-71
2022/03/21 13:20:27;;;;;;;10.95;4.40;;;;;;;;;;5045369;28;20026;-71
2022/03/21 13:22:53;;;;;;;11.57;5.15;;;;;;;;;;5047604;28;20418;-70
2022/03/21 13:25:37;;;;;;;16.27;6.80;;;;;;;;;;5047603;28;20022;-70
2022/03/21 13:28:07;;;;;;;10.40;5.40;;;;;;;;;;5048971;28;20502;-71
2022/03/21 13:30:33;;;;;;;18.30;6.93;;;;;;;;;;5051032;28;20025;-70
2022/03/21 13:32:58;;;;;;;11.43;5.85;;;;;;;;;;5045238;28;20041;-70
2022/03/21 13:35:23;;;;;;;11.87;4.00;;;;;;;;;;5044239;28;20033;-70
2022/03/21 13:38:09;;;;;;;22.03;6.13;;;;;;;;;;5043806;28;20830;-70
2022/03/21 13:40:43;;;;;;;7.00;3.95;;;;;;;;;;5049655;28;20298;-70
2022/03/21 13:43:19;;;;;;;9.85;4.78;;;;;;;;;;5048353;28;21092;-69
2022/03/21 13:45:44;;;;;;;13.27;7.07;;;;;;;;;;5041882;28;20036;-69
2022/03/21 13:48:10;;;;;;;12.88;6.18;;;;;;;;;;5048422;28;20017;-69
2022/03/21 13:50:40;;;;;;;16.55;6.00;;;;;;;;;;5050472;28;20017;-70
2022/03/21 13:53:26;;;;;;;11.68;5.93;;;;;;;;;;5047860;28;20104;-69
2022/03/21 13:55:51;;;;;;;17.73;6.90;;;;;;;;;;5048540;28;20464;-70
2022/03/21 13:58:43;;;;;;;13.80;5.50;;;;;;;;;;5045872;28;20025;-69
2022/03/21 14:01:18;;;;;;;8.07;3.95;;;;;;;;;;5040434;28;21265;-69
2022/03/21 14:03:46;;;;;;;12.27;6.32;;;;;;;;;;5048610;28;20524;-69
2022/03/21 14:06:11;;;;;;;11.63;5.85;;;;;;;;;;5047695;28;20070;-70
2022/03/21 14:08:36;;;;;;;13.77;5.67;;;;;;;;;;5049892;28;20033;-70
2022/03/21 14:11:06;;;;;;;11.45;5.45;;;;;;;;;;5050341;28;20405;-70
2022/03/21 14:13:39;;;;;;;7.00;3.15;;;;;;;;;;5050553;28;20134;-70
2022/03/21 14:16:04;;;;;;;18.67;6.13;;;;;;;;;;5049829;28;20017;-70
2022/03/21 14:18:31;;;;;;;14.75;4.10;;;;;;;;;;5050189;28;20017;-70
2022/03/21 14:20:57;;;;;;;10.35;6.05;;;;;;;;;;5048088;28;20018;-70
2022/03/21 14:23:22;;;;;;;15.25;6.68;;;;;;;;;;5047081;28;20020;-70
2022/03/21 14:28:32;;;;;;;10.55;5.18;;;;;;;;;;5048212;28;20028;-70
2022/03/21 14:30:57;;;;;;;13.23;7.07;;;;;;;;;;5042828;28;20381;-70
2022/03/21 14:33:23;;;;;;;16.60;6.65;;;;;;;;;;5047838;28;20329;-70
2022/03/21 14:35:48;;;;;;;15.10;6.60;;;;;;;;;;5043246;28;20017;-70
2022/03/21 14:38:14;;;;;;;14.25;6.57;;;;;;;;;;5045451;28;20040;-70
2022/03/21 14:40:40;;;;;;;11.75;5.55;;;;;;;;;;5049723;28;20465;-69
2022/03/21 14:43:08;;;;;;;17.70;6.95;;;;;;;;;;5046672;28;20029;-70
2022/03/21 14:45:33;;;;;;;12.50;4.82;;;;;;;;;;5043473;28;20017;-70
2022/03/21 14:47:59;;;;;;;6.47;3.50;;;;;;;;;;5044621;28;20025;-70